createdAt,value
2023-02-13T00:01:41.949Z,59.38
2023-02-13T00:04:08.394Z,59.13
2023-02-13T00:06:34.882Z,59.41
2023-02-13T00:09:02.714Z,59.17
2023-02-13T00:11:29.233Z,59.13
2023-02-13T00:13:55.696Z,59.19
2023-02-13T00:16:22.121Z,59.24
2023-02-13T00:18:48.609Z,59.26
2023-02-13T00:21:15.270Z,59.12
2023-02-13T00:23:41.933Z,59.56
2023-02-13T00:26:15.550Z,58.32
2023-02-13T00:28:42.663Z,59.14
2023-02-13T00:31:21.137Z,59.37
2023-02-13T00:33:48.070Z,59.34
2023-02-13T00:36:17.419Z,59.64
2023-02-13T00:38:44.599Z,59.37
2023-02-13T00:41:11.581Z,59.53
2023-02-13T00:43:38.387Z,59.55
2023-02-13T00:46:05.981Z,59.61
2023-02-13T00:48:34.516Z,59.93
2023-02-13T00:51:02.455Z,59.85
2023-02-13T00:53:29.293Z,59.84
2023-02-13T00:55:55.947Z,59.65
2023-02-13T00:58:23.531Z,59.84
2023-02-13T01:00:52.180Z,59.63
2023-02-13T01:03:19.363Z,59.73
2023-02-13T01:05:46.288Z,59.67
2023-02-13T01:08:12.855Z,59.48
2023-02-13T01:10:40.262Z,59.57
2023-02-13T01:13:07.752Z,59.90
2023-02-13T01:15:34.382Z,59.72
2023-02-13T01:18:01.049Z,59.82
2023-02-13T01:20:28.307Z,58.76
2023-02-13T01:22:54.861Z,59.29
2023-02-13T01:25:21.641Z,59.52
2023-02-13T01:27:48.070Z,58.90
2023-02-13T01:30:16.259Z,59.65
2023-02-13T01:32:44.458Z,59.56
2023-02-13T01:35:12.452Z,59.62
2023-02-13T01:37:39.570Z,59.81
2023-02-13T01:40:08.224Z,60.00
2023-02-13T01:42:37.133Z,59.96
2023-02-13T01:45:15.673Z,59.98
2023-02-13T01:47:48.147Z,59.84
2023-02-13T01:50:24.322Z,60.12
2023-02-13T01:52:57.762Z,60.16
2023-02-13T01:55:26.190Z,59.85
2023-02-13T01:58:06.626Z,60.05
2023-02-13T02:00:34.579Z,59.85
2023-02-13T02:03:08.149Z,59.84
2023-02-13T02:05:35.967Z,60.09
2023-02-13T02:08:06.595Z,60.04
2023-02-13T02:10:33.749Z,60.01
2023-02-13T02:13:14.146Z,59.72
2023-02-13T02:15:42.586Z,60.20
2023-02-13T02:18:19.640Z,59.96
2023-02-13T02:21:10.906Z,59.90
2023-02-13T02:24:08.431Z,59.56
2023-02-13T02:27:02.492Z,59.61
2023-02-13T02:29:47.222Z,59.58
2023-02-13T02:32:32.148Z,59.90
2023-02-13T02:35:23.316Z,60.00
2023-02-13T02:38:20.687Z,60.02
2023-02-13T02:41:10.736Z,59.71
2023-02-13T02:44:05.657Z,59.45
2023-02-13T02:46:39.520Z,59.78
2023-02-13T02:49:29.810Z,59.94
2023-02-13T02:52:15.426Z,59.93
2023-02-13T02:55:18.791Z,59.45
2023-02-13T02:58:30.637Z,59.40
2023-02-13T03:01:19.031Z,59.89
2023-02-13T03:04:07.765Z,59.89
2023-02-13T03:06:51.599Z,59.41
2023-02-13T03:09:45.138Z,59.53
2023-02-13T03:12:34.648Z,59.73
2023-02-13T03:15:01.210Z,60.04
2023-02-13T03:17:46.674Z,59.96
2023-02-13T03:20:54.732Z,59.70
2023-02-13T03:23:27.445Z,59.89
2023-02-13T03:26:19.547Z,59.65
2023-02-13T03:29:24.599Z,59.57
2023-02-13T03:32:28.045Z,59.64
2023-02-13T03:35:34.842Z,59.51
2023-02-13T03:38:10.938Z,59.64
2023-02-13T03:41:15.126Z,59.57
2023-02-13T03:43:51.162Z,59.83
2023-02-13T03:46:19.845Z,59.88
2023-02-13T03:49:06.543Z,59.97
2023-02-13T03:51:54.704Z,59.94
2023-02-13T03:54:45.332Z,59.79
2023-02-13T03:57:36.503Z,59.97
2023-02-13T04:00:09.971Z,59.62
2023-02-13T04:02:42.639Z,59.42
2023-02-13T04:05:17.785Z,59.89
2023-02-13T04:07:44.493Z,59.83
2023-02-13T04:10:13.368Z,59.10
2023-02-13T04:12:55.203Z,59.46
2023-02-13T04:15:34.769Z,59.37
2023-02-13T04:18:15.591Z,59.58
2023-02-13T04:20:42.240Z,59.65
2023-02-13T04:23:09.764Z,58.88
2023-02-13T04:25:39.148Z,59.54
2023-02-13T04:28:06.257Z,59.47
2023-02-13T04:30:33.401Z,59.58
2023-02-13T04:32:59.983Z,59.45
2023-02-13T04:35:26.604Z,59.50
2023-02-13T04:37:53.105Z,59.62
2023-02-13T04:40:19.841Z,59.61
2023-02-13T04:42:48.009Z,58.59
2023-02-13T04:45:14.898Z,59.42
2023-02-13T04:47:42.326Z,59.25
2023-02-13T04:50:09.381Z,59.31
2023-02-13T04:52:35.976Z,59.22
2023-02-13T04:55:02.562Z,58.86
2023-02-13T04:57:29.126Z,59.08
2023-02-13T04:59:56.031Z,58.96
2023-02-13T05:02:22.568Z,58.64
2023-02-13T05:04:49.610Z,58.97
2023-02-13T05:07:16.497Z,58.91
2023-02-13T05:09:43.054Z,58.79
2023-02-13T05:12:09.582Z,58.97
2023-02-13T05:14:36.246Z,58.88
2023-02-13T05:17:02.870Z,58.60
2023-02-13T05:19:29.390Z,58.53
2023-02-13T05:22:14.539Z,58.47
2023-02-13T05:24:41.077Z,58.26
2023-02-13T05:27:07.611Z,58.44
2023-02-13T05:29:34.139Z,58.80
2023-02-13T05:32:00.882Z,58.79
2023-02-13T05:34:28.097Z,58.16
2023-02-13T05:36:55.132Z,58.39
2023-02-13T05:39:22.549Z,58.68
2023-02-13T05:41:49.906Z,58.64
2023-02-13T05:44:16.997Z,58.89
2023-02-13T05:46:45.046Z,59.11
2023-02-13T05:49:13.471Z,58.79
2023-02-13T05:51:40.088Z,59.05
2023-02-13T05:54:06.675Z,58.97
2023-02-13T05:56:33.212Z,59.04
2023-02-13T05:59:00.199Z,58.88
2023-02-13T06:01:26.701Z,58.88
2023-02-13T06:03:53.393Z,58.96
2023-02-13T06:06:20.142Z,58.36
2023-02-13T06:08:46.780Z,58.80
2023-02-13T06:11:13.272Z,59.11
2023-02-13T06:13:42.775Z,58.94
2023-02-13T06:16:10.932Z,59.22
2023-02-13T06:18:39.010Z,59.15
2023-02-13T06:21:06.501Z,59.18
2023-02-13T06:23:33.121Z,59.42
2023-02-13T06:26:05.492Z,59.31
2023-02-13T06:28:32.590Z,59.56
2023-02-13T06:31:01.074Z,59.19
2023-02-13T06:33:27.972Z,59.54
2023-02-13T06:35:54.458Z,59.16
2023-02-13T06:38:21.706Z,59.54
2023-02-13T06:40:49.730Z,64.52
2023-02-13T06:43:18.007Z,67.52
2023-02-13T06:45:47.120Z,69.13
2023-02-13T06:48:14.243Z,70.68
2023-02-13T06:50:40.795Z,70.90
2023-02-13T06:53:07.322Z,70.81
2023-02-13T06:55:33.877Z,69.06
2023-02-13T06:58:00.506Z,66.43
2023-02-13T07:00:27.301Z,64.13
2023-02-13T07:02:53.983Z,60.56
2023-02-13T07:05:20.409Z,61.61
2023-02-13T07:07:46.947Z,58.04
2023-02-13T07:10:14.717Z,57.67
2023-02-13T07:12:41.632Z,56.65
2023-02-13T07:15:08.935Z,56.57
2023-02-13T07:17:35.687Z,56.67
2023-02-13T07:20:04.515Z,56.52
2023-02-13T07:22:32.977Z,56.11
2023-02-13T07:25:00.195Z,56.10
2023-02-13T07:27:29.364Z,56.22
2023-02-13T07:29:58.928Z,56.61
2023-02-13T07:32:25.681Z,56.55
2023-02-13T07:35:01.283Z,56.78
2023-02-13T07:37:29.711Z,56.17
2023-02-13T07:39:56.272Z,56.65
2023-02-13T07:42:22.870Z,56.51
2023-02-13T07:44:49.628Z,56.45
2023-02-13T07:47:17.796Z,56.86
2023-02-13T07:49:45.446Z,56.80
2023-02-13T07:52:11.946Z,56.81
2023-02-13T07:54:47.233Z,56.67
2023-02-13T07:57:15.450Z,57.18
2023-02-13T07:59:42.078Z,56.88
2023-02-13T08:02:17.674Z,57.17
2023-02-13T08:04:46.433Z,57.30
2023-02-13T08:07:14.734Z,57.31
2023-02-13T08:09:59.705Z,57.61
2023-02-13T08:12:26.343Z,57.88
2023-02-13T08:14:53.881Z,57.85
2023-02-13T08:17:20.355Z,57.95
2023-02-13T08:19:46.823Z,58.22
2023-02-13T08:22:13.334Z,58.24
2023-02-13T08:24:39.808Z,58.11
2023-02-13T08:27:06.312Z,58.19
2023-02-13T08:29:34.616Z,58.56
2023-02-13T08:32:01.162Z,58.70
2023-02-13T08:34:27.724Z,58.44
2023-02-13T08:36:54.191Z,58.38
2023-02-13T08:39:20.747Z,58.58
2023-02-13T08:41:47.200Z,59.10
2023-02-13T08:44:14.672Z,59.07
2023-02-13T08:46:41.283Z,59.11
2023-02-13T08:49:07.812Z,58.96
2023-02-13T08:51:34.739Z,58.88
2023-02-13T08:54:01.239Z,59.25
2023-02-13T08:56:27.758Z,59.37
2023-02-13T08:58:55.065Z,59.51
2023-02-13T09:01:21.776Z,59.28
2023-02-13T09:03:48.205Z,58.29
2023-02-13T09:06:14.708Z,59.21
2023-02-13T09:08:41.245Z,59.49
2023-02-13T09:11:07.822Z,59.34
2023-02-13T09:13:35.491Z,59.82
2023-02-13T09:16:07.198Z,59.62
2023-02-13T09:18:35.148Z,59.46
2023-02-13T09:21:04.634Z,59.47
2023-02-13T09:23:33.369Z,59.41
2023-02-13T09:26:05.444Z,59.87
2023-02-13T09:28:34.080Z,59.69
2023-02-13T09:31:04.711Z,59.71
2023-02-13T09:33:31.378Z,59.34
2023-02-13T09:35:58.168Z,59.32
2023-02-13T09:38:24.890Z,59.78
2023-02-13T09:40:59.863Z,59.46
2023-02-13T09:43:31.487Z,59.30
2023-02-13T09:46:05.104Z,59.33
2023-02-13T09:48:37.440Z,59.45
2023-02-13T09:51:05.267Z,59.53
2023-02-13T09:53:36.368Z,59.29
2023-02-13T09:56:21.378Z,59.59
2023-02-13T20:41:59.017Z,55.65
2023-02-13T20:44:25.578Z,55.61
2023-02-13T20:46:52.257Z,55.25
2023-02-13T20:49:21.911Z,55.49
2023-02-13T20:51:48.935Z,55.26
2023-02-13T20:54:15.546Z,55.33
2023-02-13T20:56:42.014Z,55.47
2023-02-13T20:59:08.526Z,55.23
2023-02-13T21:01:40.511Z,55.07
2023-02-13T21:04:10.041Z,55.31
2023-02-13T21:06:38.157Z,55.29
2023-02-13T21:09:06.962Z,55.21
2023-02-13T21:11:34.509Z,55.23
2023-02-13T21:14:01.926Z,55.64
2023-02-13T21:16:36.888Z,55.57
2023-02-13T21:19:07.868Z,55.53
2023-02-13T21:21:37.279Z,55.57
2023-02-13T21:24:08.520Z,56.05
2023-02-13T21:26:35.539Z,56.15
2023-02-13T21:29:02.061Z,56.30
2023-02-13T21:31:33.276Z,56.31
2023-02-13T21:34:03.162Z,56.47
2023-02-13T21:36:30.710Z,56.24
2023-02-13T21:38:57.270Z,56.43
2023-02-13T21:41:23.925Z,56.19
2023-02-13T21:43:51.051Z,56.50
2023-02-13T21:46:18.873Z,56.52
2023-02-13T21:48:46.293Z,56.91
2023-02-13T21:51:18.034Z,56.89
2023-02-13T21:53:45.478Z,56.86
2023-02-13T21:56:15.741Z,56.68
2023-02-13T21:58:43.796Z,56.76
2023-02-13T22:01:23.953Z,56.88
2023-02-13T22:03:52.226Z,56.95
2023-02-13T22:06:20.110Z,56.99
2023-02-13T22:08:47.298Z,56.94
2023-02-13T22:11:14.260Z,57.39
2023-02-13T22:13:40.738Z,57.42
2023-02-13T22:16:09.197Z,57.44
2023-02-13T22:18:38.418Z,57.71
2023-02-13T22:21:14.072Z,57.38
2023-02-13T22:23:42.169Z,57.33
2023-02-13T22:26:15.440Z,57.65
2023-02-13T22:28:42.207Z,57.51
2023-02-13T22:31:09.736Z,57.80
2023-02-13T22:33:36.446Z,57.85
2023-02-13T22:36:03.334Z,57.69
2023-02-13T22:38:33.280Z,57.71
2023-02-13T22:41:11.494Z,58.03
2023-02-13T22:43:38.343Z,57.87
2023-02-13T22:46:06.820Z,58.14
2023-02-13T22:48:36.403Z,58.04
2023-02-13T22:51:08.362Z,58.10
2023-02-13T22:53:36.083Z,58.32
2023-02-13T22:56:03.918Z,58.56
2023-02-13T22:58:30.587Z,58.41
2023-02-13T23:00:58.269Z,58.25
2023-02-13T23:03:25.117Z,58.34
2023-02-13T23:05:51.955Z,58.63
2023-02-13T23:08:18.421Z,57.81
2023-02-13T23:11:04.994Z,58.16
2023-02-13T23:13:31.930Z,58.57
2023-02-13T23:15:58.438Z,58.65
2023-02-13T23:18:24.956Z,58.75
2023-02-13T23:20:51.435Z,58.92
2023-02-13T23:23:18.141Z,58.91
2023-02-13T23:25:44.632Z,59.12
2023-02-13T23:28:11.109Z,58.81
2023-02-13T23:30:37.589Z,58.79
2023-02-13T23:33:04.196Z,58.73
2023-02-13T23:35:30.722Z,58.99
2023-02-13T23:37:57.297Z,58.85
2023-02-13T23:40:23.801Z,59.09
2023-02-13T23:42:50.295Z,59.12
2023-02-13T23:45:16.828Z,59.42
2023-02-13T23:47:43.381Z,59.43
2023-02-13T23:50:10.181Z,59.25
2023-02-13T23:52:36.660Z,58.45
2023-02-13T23:55:03.717Z,59.38
2023-02-13T23:57:30.295Z,59.59
2023-02-13T23:59:56.796Z,59.37
